Pagrindinis puslapis
METAR-TAF:

METAR-TAF

Oro uostai :

Clovis, Naujoji Meksika, Jungtinės Amerikos Valstijos

platuma: 34-26N, ilguma: 103-05W, Aukštis: 1284 m

Dabartinis oras

Ataskaita buvo paskelbta 47 minutes, ne 02:56 UTC
Vėjas 12 kt iš Rytų su gūsio iki 17 kt
Temperatūra 22°C
Drėgmė 50%
Slėgis 1021 hPa
Matomumas: 16.1 km
Mažai debesys ne aukštis 5500 ft

METAR: KCVN 220256Z AUTO 09012G17KT 10SM FEW055 22/11 A3016 RMK AO2 SLP177 T02220111 53013

Laikas: 21:43 (03:43 UTC)


TAF: trūkstamas

Orai ataskaitas ir orų prognozės (METAR, TAF).

turimą stotys yra geltonos ir raudonos taškus žemėlapyje.

Perkelti pele per norėdami pamatyti stoties vardą.

Tada spustelėkite, norėdami matyti oro stebėjimo ir prognozės.

Norėdami pakeisti žemėlapį: spustelėkite ant žalios mygtukų su juodo kryžiaus žemyn,; žalią mygtuką su brūkšneliu, jei norite nutolinti; arba žalių rodyklių gretimoms žemėlapius.


METAR-TAF: